Time;durP1;ratioP1;P1;durP2;ratioP2;P2;SDS_P1;SDS_P2;PMS_P1;PMS_P2;Temp;Humidity;BMP_temperature;BMP_pressure;BME280_temperature;BME280_humidity;BME280_pressure;Samples;Min_cycle;Max_cycle;Signal;HPM_P1;HPM_P2
2021/07/31 00:01:13;;;;;;;10.38;7.70;;;;;;;17.79;100.00;95762.34;5068644;28;20029;-77
2021/07/31 00:03:40;;;;;;;11.85;8.18;;;;;;;17.73;100.00;95755.19;5048283;28;20029;-77
2021/07/31 00:06:06;;;;;;;11.80;8.63;;;;;;;17.76;100.00;95765.41;5081464;28;20028;-78
2021/07/31 00:08:32;;;;;;;10.70;7.72;;;;;;;17.76;100.00;95766.25;5055076;28;20091;-78
2021/07/31 00:10:58;;;;;;;13.02;8.57;;;;;;;17.70;100.00;95771.59;5062306;28;20055;-77
2021/07/31 00:13:26;;;;;;;11.68;7.80;;;;;;;17.69;100.00;95765.47;5080278;28;20032;-77
2021/07/31 00:15:52;;;;;;;12.20;8.18;;;;;;;17.60;100.00;95766.75;5080579;28;20043;-80
2021/07/31 00:18:18;;;;;;;12.40;8.38;;;;;;;17.63;100.00;95761.81;5045469;28;20026;-77
2021/07/31 00:20:44;;;;;;;10.32;7.47;;;;;;;17.68;100.00;95764.66;5062066;28;20036;-81
2021/07/31 00:23:09;;;;;;;11.65;8.60;;;;;;;17.69;100.00;95765.47;5056187;28;20024;-78
2021/07/31 00:25:36;;;;;;;10.75;7.80;;;;;;;17.71;100.00;95773.25;5068888;28;20136;-79
2021/07/31 00:28:03;;;;;;;11.43;8.05;;;;;;;17.66;100.00;95769.34;5073773;28;20571;-77
2021/07/31 00:30:29;;;;;;;13.43;8.10;;;;;;;17.63;100.00;95767.13;5061797;28;20032;-78
2021/07/31 00:32:56;;;;;;;10.32;7.65;;;;;;;17.63;100.00;95769.78;5056247;28;20028;-78
2021/07/31 00:35:22;;;;;;;11.45;8.73;;;;;;;17.61;100.00;95773.72;5067561;28;20033;-79
2021/07/31 00:37:51;;;;;;;10.07;7.00;;;;;;;17.65;100.00;95773.06;5056772;28;20055;-78
2021/07/31 00:40:17;;;;;;;11.55;8.02;;;;;;;17.53;100.00;95766.78;5074010;28;20025;-78
2021/07/31 00:42:43;;;;;;;9.70;7.80;;;;;;;17.49;100.00;95762.13;5045098;28;20017;-77
2021/07/31 00:45:11;;;;;;;9.43;7.35;;;;;;;17.37;100.00;95768.13;5048991;28;20033;-77
2021/07/31 00:47:38;;;;;;;10.32;7.55;;;;;;;17.38;99.94;95764.44;5066281;28;20084;-77
2021/07/31 00:50:05;;;;;;;11.85;7.50;;;;;;;17.30;99.95;95761.19;5055640;28;20036;-80
2021/07/31 00:52:31;;;;;;;8.73;6.97;;;;;;;17.33;99.07;95763.44;5056272;28;20770;-77
2021/07/31 00:55:00;;;;;;;10.60;6.40;;;;;;;17.26;98.55;95767.97;5066651;28;20028;-78
2021/07/31 00:57:27;;;;;;;8.85;6.53;;;;;;;17.33;97.79;95771.41;5061288;28;20029;-79
2021/07/31 01:00:17;;;;;;;9.02;6.97;;;;;;;17.33;99.05;95776.72;5059254;28;20016;-77
2021/07/31 01:02:42;;;;;;;13.05;7.78;;;;;;;17.27;100.00;95770.44;5050834;28;20044;-80
2021/07/31 01:05:08;;;;;;;10.38;7.82;;;;;;;17.18;100.00;95775.16;5050449;28;20033;-77
2021/07/31 01:07:37;;;;;;;11.52;8.80;;;;;;;17.22;100.00;95780.84;5067526;28;20178;-77
2021/07/31 01:10:04;;;;;;;12.65;8.52;;;;;;;17.16;100.00;95769.22;5047818;28;20044;-78
2021/07/31 01:12:32;;;;;;;11.32;7.60;;;;;;;17.16;100.00;95766.56;5069369;28;20036;-77
2021/07/31 01:14:58;;;;;;;13.98;8.23;;;;;;;17.14;100.00;95771.31;5067584;28;20047;-77
2021/07/31 01:17:25;;;;;;;11.07;8.43;;;;;;;17.12;100.00;95776.00;5051694;28;20063;-77
2021/07/31 01:19:51;;;;;;;12.65;8.52;;;;;;;17.08;100.00;95779.31;5062416;28;20029;-77
2021/07/31 01:22:18;;;;;;;12.57;7.82;;;;;;;17.06;100.00;95768.88;5060091;28;20024;-78
2021/07/31 01:24:56;;;;;;;10.52;7.53;;;;;;;17.03;100.00;95779.91;5071721;28;20032;-79
2021/07/31 01:27:22;;;;;;;12.27;7.88;;;;;;;16.97;100.00;95775.47;5066498;28;20052;-79
2021/07/31 01:29:48;;;;;;;9.35;7.18;;;;;;;16.97;100.00;95778.13;5073136;28;20052;-77
2021/07/31 01:32:13;;;;;;;11.57;7.47;;;;;;;16.94;100.00;95791.81;5064292;28;20058;-78
2021/07/31 01:34:40;;;;;;;10.63;6.93;;;;;;;16.93;100.00;95782.19;5078290;28;20029;-79
2021/07/31 01:37:06;;;;;;;11.75;7.05;;;;;;;16.95;100.00;95769.53;5069193;28;20040;-77
2021/07/31 01:39:33;;;;;;;8.32;5.88;;;;;;;17.00;98.85;95774.19;5071279;28;20035;-80
2021/07/31 01:42:00;;;;;;;9.95;5.40;;;;;;;16.87;98.17;95772.44;5046885;28;20024;-78
2021/07/31 01:44:28;;;;;;;9.48;6.00;;;;;;;16.99;97.46;95776.06;5051002;28;20443;-78
2021/07/31 01:46:53;;;;;;;8.85;6.00;;;;;;;16.97;97.48;95775.47;5073150;28;20073;-77
2021/07/31 01:49:22;;;;;;;10.43;5.65;;;;;;;16.98;96.73;95778.94;5066175;28;20040;-79
2021/07/31 01:51:57;;;;;;;8.25;4.60;;;;;;;16.97;96.16;95775.47;5076816;28;20033;-79
2021/07/31 01:54:24;;;;;;;8.30;5.35;;;;;;;16.88;95.86;95774.06;5064634;28;20067;-77
2021/07/31 01:56:50;;;;;;;9.55;5.07;;;;;;;16.91;94.80;95777.09;5073625;28;20024;-78
2021/07/31 01:59:19;;;;;;;7.28;4.15;;;;;;;16.93;92.22;95777.72;5064816;28;20144;-77
2021/07/31 02:01:46;;;;;;;7.53;4.18;;;;;;;16.99;91.36;95780.56;5057385;28;20107;-77
2021/07/31 02:04:13;;;;;;;6.85;4.13;;;;;;;16.90;91.36;95785.28;5059028;28;20029;-77
2021/07/31 02:06:59;;;;;;;8.10;4.28;;;;;;;16.96;90.87;95776.47;5068531;28;20043;-77
2021/07/31 02:09:28;;;;;;;7.47;4.40;;;;;;;16.94;90.81;95771.38;5054820;28;20477;-77
2021/07/31 02:11:54;;;;;;;8.25;4.75;;;;;;;16.99;90.05;95776.06;5093183;28;20383;-78
2021/07/31 02:14:20;;;;;;;5.90;3.80;;;;;;;16.89;90.03;95781.00;5067151;28;20031;-80
2021/07/31 02:16:51;;;;;;;7.50;3.85;;;;;;;16.95;89.26;95780.16;5065200;28;20039;-77
2021/07/31 02:19:18;;;;;;;6.45;3.80;;;;;;;16.94;89.45;95778.53;5046342;28;20033;-76
2021/07/31 02:21:52;;;;;;;6.97;3.60;;;;;;;17.00;87.75;95772.38;5067893;28;20021;-77
2021/07/31 02:24:37;;;;;;;6.03;3.30;;;;;;;16.90;87.60;95780.81;5075543;28;20076;-77
2021/07/31 02:27:31;;;;;;;7.45;3.35;;;;;;;16.87;88.23;95783.06;5075455;28;20036;-77
2021/07/31 02:30:03;;;;;;;6.57;3.30;;;;;;;16.86;88.09;95778.75;5055804;28;20025;-76
2021/07/31 02:32:31;;;;;;;11.82;3.60;;;;;;;16.95;87.67;95773.00;5060891;28;20147;-77
2021/07/31 02:34:57;;;;;;;9.18;3.10;;;;;;;16.81;87.31;95776.75;5076216;28;20103;-76
2021/07/31 02:37:25;;;;;;;9.25;3.40;;;;;;;16.85;86.98;95782.44;5076361;28;20044;-77
2021/07/31 02:39:53;;;;;;;7.43;2.83;;;;;;;16.90;86.62;95785.28;5076870;28;20028;-77
2021/07/31 02:42:19;;;;;;;9.10;2.70;;;;;;;16.88;86.59;95784.69;5061758;28;20021;-77
2021/07/31 02:44:46;;;;;;;4.47;2.75;;;;;;;16.89;85.85;95787.13;5075123;28;20093;-77
2021/07/31 02:47:17;;;;;;;7.22;3.00;;;;;;;16.90;84.97;95782.63;5085457;28;20115;-77
2021/07/31 02:49:48;;;;;;;5.75;2.38;;;;;;;16.96;81.87;95771.16;5081726;28;20070;-77
2021/07/31 02:52:14;;;;;;;6.60;2.78;;;;;;;16.90;82.20;95767.53;5069641;28;20048;-78
2021/07/31 02:54:43;;;;;;;4.78;2.40;;;;;;;16.94;81.25;95770.56;5069111;28;20021;-77
2021/07/31 02:57:10;;;;;;;7.93;2.63;;;;;;;16.88;79.83;95756.28;5079300;28;20103;-77
2021/07/31 02:59:37;;;;;;;8.70;2.47;;;;;;;16.88;78.42;95758.94;5075269;28;20183;-78
2021/07/31 03:02:05;;;;;;;6.22;2.20;;;;;;;16.84;78.09;95768.34;5080869;28;20390;-78
2021/07/31 03:04:33;;;;;;;6.53;2.42;;;;;;;16.84;78.24;95764.88;5060215;28;20027;-76
2021/07/31 03:07:12;;;;;;;6.63;2.65;;;;;;;16.93;77.16;95761.78;5079413;28;20036;-77
2021/07/31 03:09:39;;;;;;;5.30;2.22;;;;;;;16.84;78.05;95765.69;5067506;28;20024;-76
2021/07/31 03:12:05;;;;;;;5.78;2.20;;;;;;;16.92;76.98;95756.69;5068158;28;20035;-76
2021/07/31 03:14:34;;;;;;;10.18;3.05;;;;;;;16.88;77.57;95760.78;5059557;28;20016;-78
2021/07/31 03:17:00;;;;;;;7.28;2.40;;;;;;;16.90;77.64;95764.03;5060257;28;20044;-77
2021/07/31 03:19:26;;;;;;;6.97;2.08;;;;;;;16.84;78.14;95762.22;5075968;28;20653;-76
2021/07/31 03:21:56;;;;;;;7.18;2.03;;;;;;;16.83;77.67;95765.88;5057041;28;20050;-77
2021/07/31 03:24:31;;;;;;;6.38;2.15;;;;;;;16.83;77.55;95771.19;5071512;28;20032;-78
2021/07/31 03:26:58;;;;;;;7.38;2.28;;;;;;;16.89;77.26;95775.69;5053381;28;20021;-77
2021/07/31 03:29:41;;;;;;;5.13;2.00;;;;;;;16.90;77.17;95778.16;5076942;28;20019;-78
2021/07/31 03:32:07;;;;;;;4.45;2.28;;;;;;;16.86;77.60;95782.22;5082197;28;20103;-76
2021/07/31 03:34:32;;;;;;;7.50;2.50;;;;;;;16.87;78.23;95788.38;5060191;28;20043;-76
2021/07/31 03:36:58;;;;;;;4.95;2.20;;;;;;;16.82;79.12;95783.66;5063685;28;20044;-77
2021/07/31 03:39:27;;;;;;;8.00;2.50;;;;;;;16.91;79.17;95784.25;5082456;28;20545;-78
2021/07/31 03:41:55;;;;;;;6.90;2.25;;;;;;;16.81;79.66;95782.06;5064856;28;20367;-76
2021/07/31 03:44:22;;;;;;;11.88;2.67;;;;;;;16.79;80.36;95785.94;5068895;28;20033;-77
2021/07/31 03:46:49;;;;;;;5.18;2.55;;;;;;;16.82;80.22;95780.19;5071600;28;20028;-76
2021/07/31 03:49:21;;;;;;;6.70;2.60;;;;;;;16.81;80.52;95773.28;5091229;28;20036;-76
2021/07/31 03:51:52;;;;;;;6.75;2.30;;;;;;;16.78;79.76;95787.78;5053261;28;20037;-76
2021/07/31 03:54:18;;;;;;;6.53;2.47;;;;;;;16.76;79.36;95783.69;5079241;28;20566;-77
2021/07/31 03:56:44;;;;;;;4.50;2.33;;;;;;;16.76;80.41;95786.34;5062386;28;20036;-78
2021/07/31 03:59:20;;;;;;;5.05;1.98;;;;;;;16.70;79.09;95782.69;5073707;28;20040;-77
2021/07/31 04:01:46;;;;;;;4.40;1.90;;;;;;;16.66;79.63;95779.59;5075340;28;20337;-79
2021/07/31 04:04:12;;;;;;;8.18;2.45;;;;;;;16.61;79.58;95774.09;5077582;28;20200;-77
2021/07/31 04:06:40;;;;;;;7.45;2.55;;;;;;;16.62;79.25;95777.56;5059820;28;20028;-78
2021/07/31 04:09:29;;;;;;;8.70;2.20;;;;;;;16.66;77.14;95784.91;5067840;28;20036;-76
2021/07/31 04:12:31;;;;;;;4.60;2.17;;;;;;;16.68;75.77;95790.03;5022310;28;20029;-76
2021/07/31 04:15:35;;;;;;;6.13;1.77;;;;;;;16.76;75.60;95791.66;5052818;28;20079;-76
2021/07/31 04:18:01;;;;;;;5.40;2.25;;;;;;;16.75;76.49;95785.53;5070941;28;20054;-77
2021/07/31 04:20:27;;;;;;;5.05;1.85;;;;;;;16.66;74.54;95795.53;5072777;28;20032;-76
2021/07/31 04:22:53;;;;;;;5.32;1.63;;;;;;;16.76;75.71;95792.47;5075619;28;20511;-78
2021/07/31 04:25:23;;;;;;;5.63;1.92;;;;;;;16.76;74.95;95796.97;5061775;28;20036;-78
2021/07/31 04:27:48;;;;;;;4.05;1.70;;;;;;;16.68;74.56;95801.44;5071351;28;20911;-76
2021/07/31 04:30:14;;;;;;;5.10;1.77;;;;;;;16.70;72.44;95795.94;5075930;28;20052;-77
2021/07/31 04:32:40;;;;;;;4.22;1.98;;;;;;;16.64;72.67;95810.06;5075564;28;20055;-77
2021/07/31 04:35:06;;;;;;;5.75;1.83;;;;;;;16.58;72.85;95800.25;5075625;28;20056;-79
2021/07/31 04:37:33;;;;;;;5.13;1.38;;;;;;;16.56;72.83;95803.09;5065032;28;20035;-80
2021/07/31 04:39:58;;;;;;;6.55;1.75;;;;;;;16.60;72.36;95799.03;5086676;28;20039;-76
2021/07/31 04:42:24;;;;;;;5.82;2.15;;;;;;;16.62;72.18;95807.59;5060809;28;20033;-78
2021/07/31 04:44:50;;;;;;;4.85;1.60;;;;;;;16.58;72.70;95806.38;5081463;28;20111;-77
2021/07/31 04:47:16;;;;;;;5.50;1.60;;;;;;;16.69;72.63;95807.56;5059659;28;20024;-77
2021/07/31 04:49:43;;;;;;;7.18;1.70;;;;;;;16.63;71.32;95803.09;5074498;28;20036;-77
2021/07/31 04:52:09;;;;;;;6.70;1.50;;;;;;;16.70;71.17;95799.41;5065169;28;20098;-80
2021/07/31 04:54:40;;;;;;;5.47;1.52;;;;;;;16.74;71.23;95799.81;5077703;28;20091;-80
2021/07/31 04:57:06;;;;;;;11.82;1.98;;;;;;;16.60;72.48;95804.34;5065927;28;20017;-78
2021/07/31 04:59:31;;;;;;;4.70;1.33;;;;;;;16.67;72.18;95804.31;5058325;28;20027;-78
2021/07/31 05:01:57;;;;;;;4.60;1.75;;;;;;;16.76;71.40;95802.28;5074879;28;20036;-77
2021/07/31 05:04:23;;;;;;;6.10;1.70;;;;;;;16.66;71.79;95794.72;5084529;28;20040;-80
2021/07/31 05:06:48;;;;;;;5.03;1.73;;;;;;;16.56;72.41;95803.09;5072738;28;20043;-79
2021/07/31 05:09:14;;;;;;;4.93;1.40;;;;;;;16.84;71.19;95804.72;5065030;28;20055;-79
2021/07/31 05:11:41;;;;;;;4.35;1.80;;;;;;;16.94;70.44;95803.25;5091353;28;20027;-78
2021/07/31 05:14:07;;;;;;;5.25;1.70;;;;;;;17.18;68.85;95817.66;5079730;28;20069;-78
2021/07/31 05:16:33;;;;;;;6.82;2.00;;;;;;;17.09;68.37;95812.81;5059394;28;20119;-78
2021/07/31 05:18:58;;;;;;;7.78;1.58;;;;;;;17.14;68.15;95815.66;5066195;28;20352;-78
2021/07/31 05:21:24;;;;;;;2.97;1.38;;;;;;;17.18;69.14;95816.84;5084801;28;20024;-79
2021/07/31 05:23:50;;;;;;;8.77;1.40;;;;;;;16.88;68.91;95816.56;5087096;28;20028;-77
2021/07/31 05:26:16;;;;;;;5.43;1.65;;;;;;;16.86;68.99;95814.09;5092925;28;20054;-79
2021/07/31 05:28:41;;;;;;;8.43;3.50;;;;;;;16.87;68.56;95812.28;5092110;28;20030;-80
2021/07/31 05:31:07;;;;;;;10.40;5.15;;;;;;;16.85;69.06;95816.97;5065221;28;20040;-77
2021/07/31 05:33:33;;;;;;;8.18;3.38;;;;;;;16.92;69.06;95813.25;5055430;28;20028;-79
2021/07/31 05:36:06;;;;;;;5.47;1.48;;;;;;;17.33;68.05;95812.06;5081737;28;20039;-78
2021/07/31 05:38:31;;;;;;;9.15;2.00;;;;;;;17.58;66.88;95814.81;5065791;28;20025;-76
2021/07/31 05:40:57;;;;;;;6.95;1.65;;;;;;;17.89;65.80;95811.38;5083266;28;20028;-80
2021/07/31 05:43:23;;;;;;;4.85;1.67;;;;;;;18.08;64.68;95816.78;5067008;28;20086;-77
2021/07/31 05:45:48;;;;;;;4.88;1.50;;;;;;;18.37;62.88;95815.31;5067591;28;20028;-78
2021/07/31 05:48:14;;;;;;;10.30;1.27;;;;;;;18.45;62.94;95814.25;5066156;28;20040;-77
2021/07/31 05:50:40;;;;;;;3.85;1.42;;;;;;;18.20;63.16;95815.03;5083329;28;20024;-76
2021/07/31 05:53:06;;;;;;;5.22;1.10;;;;;;;18.43;61.33;95814.44;5066734;28;20028;-82
2021/07/31 05:55:31;;;;;;;5.25;1.58;;;;;;;18.62;61.07;95815.31;5066319;28;20032;-77
2021/07/31 05:57:57;;;;;;;5.93;1.40;;;;;;;18.38;60.96;95814.28;5073227;28;20043;-78
2021/07/31 06:00:33;;;;;;;5.30;1.50;;;;;;;18.34;61.73;95818.41;5077954;28;20067;-78
2021/07/31 06:03:00;;;;;;;4.70;1.45;;;;;;;18.41;61.55;95819.19;5072332;28;20035;-78
2021/07/31 06:05:26;;;;;;;4.43;1.63;;;;;;;18.36;61.48;95814.50;5055201;28;20094;-81
2021/07/31 06:07:52;;;;;;;6.63;1.40;;;;;;;18.32;62.07;95823.16;5075863;28;20044;-78
2021/07/31 06:10:18;;;;;;;8.32;1.38;;;;;;;18.47;60.31;95815.63;5071542;28;20696;-76
2021/07/31 06:12:44;;;;;;;7.03;1.38;;;;;;;18.82;58.70;95823.13;5051020;28;20372;-76
2021/07/31 06:15:10;;;;;;;6.45;2.35;;;;;;;18.46;60.50;95827.31;5047657;28;20483;-78
2021/07/31 06:17:37;;;;;;;13.43;6.65;;;;;;;18.78;59.84;95821.94;5072511;28;20138;-79
2021/07/31 06:20:04;;;;;;;12.23;3.80;;;;;;;19.29;59.07;95824.22;5059391;28;20036;-78
2021/07/31 06:22:30;;;;;;;9.07;1.80;;;;;;;19.67;58.86;95820.47;5071579;28;20037;-75
2021/07/31 06:24:56;;;;;;;5.38;1.60;;;;;;;19.59;57.54;95826.09;5072350;28;20129;-78
2021/07/31 06:27:22;;;;;;;8.90;1.30;;;;;;;19.87;56.29;95820.19;5061232;28;20032;-77
2021/07/31 06:29:47;;;;;;;4.18;1.45;;;;;;;20.24;54.38;95817.38;5067923;28;20504;-77
2021/07/31 06:32:13;;;;;;;5.95;1.23;;;;;;;20.12;55.83;95813.88;5078584;28;20043;-76
2021/07/31 06:34:39;;;;;;;7.60;1.65;;;;;;;20.55;54.07;95810.13;5076829;28;20055;-76
2021/07/31 06:37:05;;;;;;;5.07;1.65;;;;;;;20.40;54.55;95819.38;5062614;28;20036;-77
2021/07/31 06:39:30;;;;;;;5.00;1.30;;;;;;;20.53;53.21;95821.03;5054978;28;20032;-78
2021/07/31 06:41:56;;;;;;;9.80;1.38;;;;;;;20.44;53.87;95820.53;5071041;28;20059;-77
2021/07/31 06:44:22;;;;;;;5.72;1.45;;;;;;;20.67;53.86;95818.97;5072082;28;20119;-76
2021/07/31 06:46:47;;;;;;;5.75;1.48;;;;;;;21.02;52.96;95815.44;5064981;28;20032;-77
2021/07/31 06:49:13;;;;;;;4.20;1.40;;;;;;;21.85;51.17;95806.91;5062299;28;20024;-79
2021/07/31 06:51:39;;;;;;;6.03;1.67;;;;;;;22.12;49.91;95807.13;5062610;28;20484;-79
2021/07/31 06:54:05;;;;;;;6.00;1.33;;;;;;;21.97;49.74;95808.75;5055660;28;20044;-79
2021/07/31 06:56:38;;;;;;;6.82;1.58;;;;;;;21.55;50.87;95820.56;5063337;28;20433;-77
2021/07/31 06:59:03;;;;;;;;;;;;;;;21.22;51.65;95815.03;5048766;28;20085;-77
2021/07/31 07:01:29;;;;;;;7.47;1.40;;;;;;;21.46;50.48;95813.13;5064147;28;19916;-78
2021/07/31 07:03:56;;;;;;;5.60;1.30;;;;;;;21.36;49.71;95816.41;5076733;28;20024;-77
2021/07/31 07:06:22;;;;;;;6.15;1.77;;;;;;;22.03;49.31;95826.50;5083273;28;20061;-77
2021/07/31 07:08:56;;;;;;;3.08;1.23;;;;;;;22.50;46.66;95820.88;5081819;28;20123;-77
2021/07/31 07:11:30;;;;;;;5.22;1.50;;;;;;;22.65;47.72;95802.34;5063897;28;20045;-76
2021/07/31 07:13:56;;;;;;;4.53;1.10;;;;;;;22.16;47.99;95810.16;5073041;28;20048;-76
2021/07/31 07:16:25;;;;;;;8.20;1.67;;;;;;;22.57;47.92;95792.88;5037523;28;20044;-77
2021/07/31 07:18:52;;;;;;;5.20;1.27;;;;;;;22.68;47.39;95796.50;5066962;28;20487;-77
2021/07/31 07:21:17;;;;;;;4.65;1.55;;;;;;;23.06;45.93;95793.03;5076156;28;20025;-76
2021/07/31 07:23:43;;;;;;;5.50;1.55;;;;;;;23.34;45.81;95801.97;5063828;28;20032;-78
2021/07/31 07:26:10;;;;;;;8.18;1.73;;;;;;;22.87;46.28;95798.91;5077552;28;20491;-76
2021/07/31 07:28:37;;;;;;;5.22;1.52;;;;;;;23.37;45.37;95792.59;5076416;28;20043;-75
2021/07/31 07:31:03;;;;;;;4.45;1.70;;;;;;;23.30;46.07;95790.91;5084632;28;20106;-77
2021/07/31 07:33:29;;;;;;;4.53;1.38;;;;;;;22.91;46.06;95789.31;5067134;28;20036;-76
2021/07/31 07:35:54;;;;;;;4.22;1.35;;;;;;;23.86;44.22;95793.41;5081304;28;20039;-78
2021/07/31 07:38:20;;;;;;;6.72;1.85;;;;;;;23.27;45.35;95794.13;5076186;28;20589;-77
2021/07/31 07:40:46;;;;;;;5.18;1.90;;;;;;;24.00;44.66;95800.00;5089411;28;20097;-77
2021/07/31 07:43:13;;;;;;;4.28;1.27;;;;;;;23.76;44.91;95796.00;5087793;28;20048;-77
2021/07/31 07:45:38;;;;;;;5.32;1.30;;;;;;;23.73;45.36;95791.94;5078940;28;20028;-77
2021/07/31 07:48:06;;;;;;;4.57;1.75;;;;;;;24.83;43.14;95796.91;5055858;28;20040;-76
2021/07/31 07:50:33;;;;;;;6.53;1.90;;;;;;;23.69;44.71;95792.72;5084250;28;20037;-77
2021/07/31 07:53:00;;;;;;;5.10;1.95;;;;;;;23.66;45.26;95794.00;5082373;28;20024;-75
2021/07/31 07:55:25;;;;;;;6.60;2.38;;;;;;;23.72;45.72;95795.69;5071544;28;20055;-77
2021/07/31 07:57:54;;;;;;;6.22;1.95;;;;;;;24.09;45.87;95786.13;5088778;28;20048;-76
2021/07/31 08:00:19;;;;;;;6.05;1.60;;;;;;;23.76;45.49;95794.13;5082555;28;20075;-75
2021/07/31 08:02:45;;;;;;;4.50;1.40;;;;;;;24.24;43.70;95791.59;5071295;28;20522;-75
2021/07/31 08:05:12;;;;;;;4.65;1.48;;;;;;;24.40;42.79;95796.06;5084062;28;20024;-77
2021/07/31 08:07:41;;;;;;;6.50;2.08;;;;;;;24.42;42.97;95791.25;5054699;28;20021;-76
2021/07/31 08:10:09;;;;;;;6.60;2.00;;;;;;;24.29;43.40;95788.16;5058349;28;20087;-77
2021/07/31 08:12:34;;;;;;;5.28;1.67;;;;;;;24.98;41.86;95795.34;5071978;28;20481;-77
2021/07/31 08:15:00;;;;;;;6.20;1.92;;;;;;;24.22;43.06;95793.75;5052964;28;20040;-77
2021/07/31 08:17:26;;;;;;;7.70;2.13;;;;;;;24.53;42.76;95789.44;5061099;28;20037;-76
2021/07/31 08:19:51;;;;;;;6.18;1.58;;;;;;;25.44;42.48;95779.44;5061795;28;20086;-76
2021/07/31 08:22:17;;;;;;;6.43;1.95;;;;;;;25.97;41.31;95782.84;5057078;28;20587;-76
2021/07/31 08:24:43;;;;;;;4.35;1.70;;;;;;;25.71;40.60;95777.38;5070493;28;20028;-77
2021/07/31 08:27:08;;;;;;;7.28;2.13;;;;;;;25.74;41.08;95782.22;5069233;28;20401;-76
2021/07/31 08:29:34;;;;;;;5.07;1.48;;;;;;;25.91;39.67;95778.50;5056217;28;20199;-76
2021/07/31 08:32:00;;;;;;;5.22;1.45;;;;;;;25.33;40.58;95775.91;5074106;28;20043;-76
2021/07/31 08:34:25;;;;;;;8.13;1.58;;;;;;;26.02;39.31;95775.56;5060069;28;20140;-77
2021/07/31 08:36:51;;;;;;;4.75;2.08;;;;;;;25.57;39.54;95787.84;5076680;28;20289;-77
2021/07/31 08:39:17;;;;;;;4.68;1.50;;;;;;;26.31;39.35;95778.53;5076395;28;20487;-79
2021/07/31 08:41:47;;;;;;;5.28;1.95;;;;;;;26.50;39.40;95783.41;5054647;28;20211;-77
2021/07/31 08:44:13;;;;;;;6.50;2.60;;;;;;;26.41;38.26;95790.41;5070469;28;20039;-76
2021/07/31 08:46:42;;;;;;;5.18;1.92;;;;;;;26.91;37.17;95786.03;5067762;28;20590;-76
2021/07/31 08:49:08;;;;;;;8.60;1.80;;;;;;;26.36;37.77;95785.81;5060726;28;20477;-77
2021/07/31 08:51:35;;;;;;;4.70;1.38;;;;;;;26.34;37.66;95785.28;5070590;28;20497;-79
2021/07/31 08:54:01;;;;;;;6.30;1.63;;;;;;;26.53;37.90;95772.91;5066284;28;20099;-78
2021/07/31 08:56:28;;;;;;;6.25;1.45;;;;;;;26.00;38.36;95785.81;5080477;28;20053;-78
2021/07/31 08:58:54;;;;;;;4.93;1.45;;;;;;;26.09;37.61;95789.59;5080253;28;20062;-77
2021/07/31 09:01:21;;;;;;;7.65;1.38;;;;;;;25.34;38.86;95781.03;5082422;28;20028;-77
2021/07/31 09:03:50;;;;;;;5.63;1.70;;;;;;;25.82;40.04;95784.44;5080235;28;20040;-76
2021/07/31 09:06:30;;;;;;;6.55;1.60;;;;;;;26.03;38.12;95774.50;5070097;28;20047;-77
2021/07/31 09:08:57;;;;;;;5.32;1.95;;;;;;;26.58;37.65;95773.97;5073244;28;20082;-76
2021/07/31 09:11:24;;;;;;;6.18;1.55;;;;;;;25.70;37.17;95774.94;5068808;28;20103;-76
2021/07/31 09:14:11;;;;;;;4.45;1.40;;;;;;;27.20;35.79;95767.38;5050220;28;20501;-76
2021/07/31 09:16:38;;;;;;;3.42;1.30;;;;;;;27.89;34.68;95763.78;5080105;28;20494;-76
2021/07/31 09:19:06;;;;;;;4.10;1.30;;;;;;;26.61;36.36;95776.94;5078895;28;20463;-76
2021/07/31 09:21:32;;;;;;;6.07;1.65;;;;;;;26.95;36.11;95777.13;5081980;28;20173;-77
2021/07/31 09:23:57;;;;;;;4.72;1.48;;;;;;;26.89;36.89;95772.00;5081725;28;20012;-76
2021/07/31 09:26:31;;;;;;;5.40;1.55;;;;;;;25.60;37.86;95776.53;5082652;28;20034;-76
2021/07/31 09:28:58;;;;;;;4.43;1.88;;;;;;;24.55;40.73;95778.44;5062753;28;20450;-76
2021/07/31 09:31:23;;;;;;;5.50;1.63;;;;;;;26.20;37.96;95776.13;5058621;28;20059;-77
2021/07/31 09:33:50;;;;;;;9.77;3.42;;;;;;;26.11;38.11;95773.13;5063982;28;20058;-76
2021/07/31 09:36:16;;;;;;;3.08;1.58;;;;;;;24.98;39.22;95782.72;5068124;28;20024;-75
2021/07/31 09:38:45;;;;;;;5.35;1.35;;;;;;;26.24;38.26;95774.50;5033765;28;20067;-77
2021/07/31 09:41:25;;;;;;;4.93;1.73;;;;;;;26.46;37.26;95769.66;5060913;28;20027;-77
2021/07/31 09:44:17;;;;;;;8.18;2.08;;;;;;;26.22;36.39;95766.66;5063145;28;20025;-76
2021/07/31 09:46:47;;;;;;;5.72;1.67;;;;;;;26.56;36.96;95774.25;5057482;28;20584;-77
2021/07/31 09:49:21;;;;;;;6.13;2.15;;;;;;;26.17;38.20;95765.88;5061108;28;20604;-77
2021/07/31 09:51:52;;;;;;;5.13;1.80;;;;;;;26.29;36.84;95769.91;5053078;28;20032;-76
2021/07/31 09:54:22;;;;;;;5.45;2.15;;;;;;;27.51;35.42;95770.72;5079048;28;20055;-77
2021/07/31 09:56:49;;;;;;;3.97;1.70;;;;;;;27.90;33.99;95765.41;5064438;28;20035;-77
2021/07/31 09:59:20;;;;;;;4.65;1.23;;;;;;;27.44;34.23;95771.03;5073678;28;20197;-77
2021/07/31 10:02:03;;;;;;;5.68;1.60;;;;;;;27.14;35.12;95754.97;5052978;28;20389;-77
2021/07/31 10:04:31;;;;;;;5.95;1.92;;;;;;;26.88;35.39;95757.72;5062101;28;20193;-77
2021/07/31 10:07:02;;;;;;;7.03;1.75;;;;;;;28.25;33.19;95757.31;5087150;28;20036;-77
2021/07/31 10:09:29;;;;;;;4.10;1.63;;;;;;;28.52;32.49;95746.00;5079671;28;20107;-77
2021/07/31 10:11:56;;;;;;;4.95;1.50;;;;;;;28.46;34.87;95747.13;5075096;28;20067;-77
2021/07/31 10:14:23;;;;;;;4.78;1.60;;;;;;;27.23;35.47;95737.09;5069292;28;20165;-77
2021/07/31 10:16:49;;;;;;;5.03;1.42;;;;;;;27.23;34.59;95743.31;5075131;28;20073;-77
2021/07/31 10:19:16;;;;;;;7.00;1.65;;;;;;;27.64;34.15;95739.59;5070119;28;20043;-77
2021/07/31 10:21:41;;;;;;;7.88;2.10;;;;;;;28.90;31.93;95739.63;5071038;28;20051;-78
2021/07/31 10:24:08;;;;;;;5.00;2.13;;;;;;;28.34;32.77;95748.31;5074235;28;20032;-77
2021/07/31 10:26:36;;;;;;;8.45;2.47;;;;;;;27.85;34.57;95741.09;5057029;28;20144;-78
2021/07/31 10:29:32;;;;;;;3.78;1.30;;;;;;;29.16;32.64;95738.56;5057429;28;20534;-78
2021/07/31 10:32:20;;;;;;;3.63;1.40;;;;;;;28.06;33.32;95749.06;5071086;28;20074;-77
2021/07/31 10:34:49;;;;;;;4.60;1.50;;;;;;;28.72;32.39;95740.38;5091891;28;20121;-77
2021/07/31 10:37:30;;;;;;;5.70;1.35;;;;;;;26.47;35.07;95744.31;5053217;28;20037;-77
2021/07/31 10:40:00;;;;;;;4.65;1.85;;;;;;;27.15;35.33;95740.38;5077206;28;20043;-77
2021/07/31 10:42:46;;;;;;;4.57;1.63;;;;;;;28.72;34.07;95745.81;5052162;28;20396;-77
2021/07/31 10:45:15;;;;;;;3.03;1.20;;;;;;;28.60;31.75;95742.66;5070987;28;20032;-76
2021/07/31 10:47:42;;;;;;;5.18;1.58;;;;;;;27.94;32.26;95746.72;5086732;28;20039;-77
2021/07/31 10:50:27;;;;;;;6.13;1.42;;;;;;;26.76;33.37;95744.53;5084292;28;20036;-76
2021/07/31 10:53:12;;;;;;;6.55;1.73;;;;;;;26.28;33.45;95748.59;5073494;28;20027;-78
2021/07/31 10:55:38;;;;;;;6.00;1.65;;;;;;;28.30;32.33;95752.63;5076505;28;20035;-78
2021/07/31 10:58:07;;;;;;;3.83;1.33;;;;;;;27.93;33.17;95751.34;5081003;28;20028;-78
2021/07/31 11:00:34;;;;;;;3.92;1.17;;;;;;;26.53;35.15;95747.81;5067012;28;20082;-79
2021/07/31 11:03:05;;;;;;;6.15;1.60;;;;;;;28.02;32.50;95758.81;5063215;28;20112;-79
2021/07/31 11:06:03;;;;;;;3.58;1.33;;;;;;;28.57;31.84;95748.66;5089361;28;20394;-79
2021/07/31 11:08:34;;;;;;;3.97;1.30;;;;;;;28.14;32.72;95757.38;5031272;28;20036;-79
2021/07/31 11:11:20;;;;;;;3.38;1.30;;;;;;;28.66;31.72;95755.84;5074302;28;20052;-79
2021/07/31 11:13:46;;;;;;;4.35;1.65;;;;;;;27.48;33.08;95753.19;5066098;28;20029;-78
2021/07/31 11:16:17;;;;;;;5.53;1.48;;;;;;;26.37;34.96;95757.78;5060505;28;20090;-77
2021/07/31 11:18:47;;;;;;;5.05;1.85;;;;;;;26.87;34.51;95756.09;5085022;28;20028;-78
2021/07/31 11:21:18;;;;;;;4.40;1.50;;;;;;;28.27;33.20;95747.00;5085521;28;20037;-78
2021/07/31 11:23:51;;;;;;;4.57;1.42;;;;;;;28.68;33.71;95750.19;5081212;28;20078;-78
2021/07/31 11:26:46;;;;;;;4.65;1.73;;;;;;;29.64;31.52;95738.50;5066020;28;20672;-78
2021/07/31 11:29:27;;;;;;;2.35;1.15;;;;;;;29.66;31.34;95744.44;5075986;28;20060;-79
2021/07/31 11:31:57;;;;;;;3.45;1.55;;;;;;;29.77;31.64;95745.91;5073903;28;20047;-78
2021/07/31 11:34:23;;;;;;;5.68;1.98;;;;;;;29.83;30.47;95753.69;5092161;28;20036;-78
2021/07/31 11:36:57;;;;;;;2.63;1.55;;;;;;;30.34;29.86;95756.72;5084710;28;20161;-79
2021/07/31 11:39:23;;;;;;;5.38;1.92;;;;;;;28.80;31.21;95761.41;5085766;28;20122;-78